createdAt,value
2023-01-13T00:01:56.201Z,8.40
2023-01-13T00:06:58.993Z,7.20
2023-01-13T00:12:01.818Z,8.10
2023-01-13T00:17:05.158Z,8.50
2023-01-13T00:22:07.973Z,7.70
2023-01-13T00:27:11.214Z,7.60
2023-01-13T00:37:16.754Z,9.00
2023-01-13T00:42:38.853Z,9.00
2023-01-13T00:47:41.603Z,8.80
2023-01-13T00:52:44.384Z,8.50
2023-01-13T00:57:47.172Z,9.30
2023-01-13T01:02:49.984Z,9.30
2023-01-13T01:07:52.783Z,10.00
2023-01-13T01:12:55.562Z,9.70
2023-01-13T01:17:58.349Z,10.70
2023-01-13T01:23:01.168Z,10.40
2023-01-13T01:28:04.034Z,10.40
2023-01-13T01:33:06.859Z,10.80
2023-01-13T01:38:09.596Z,10.00
2023-01-13T01:43:36.441Z,9.60
2023-01-13T01:48:42.467Z,10.60
2023-01-13T01:53:45.531Z,11.60
2023-01-13T01:58:51.659Z,9.80
2023-01-13T02:04:11.364Z,11.50
2023-01-13T02:09:14.884Z,10.30
2023-01-13T02:14:18.706Z,9.70
2023-01-13T02:20:04.429Z,9.10
2023-01-13T02:25:42.407Z,8.20
2023-01-13T02:31:18.274Z,8.80
2023-01-13T02:36:39.848Z,7.90
2023-01-13T02:42:24.119Z,7.70
2023-01-13T02:47:30.774Z,7.40
2023-01-13T02:52:39.561Z,7.40
2023-01-13T02:57:44.404Z,6.40
2023-01-13T03:02:48.960Z,7.40
2023-01-13T03:08:06.926Z,6.10
2023-01-13T03:13:12.297Z,6.70
2023-01-13T03:18:17.763Z,5.20
2023-01-13T03:23:37.781Z,5.10
2023-01-13T03:28:49.480Z,4.90
2023-01-13T03:33:57.681Z,5.00
2023-01-13T03:39:07.803Z,5.10
2023-01-13T03:44:27.577Z,6.10
2023-01-13T03:49:41.854Z,5.00
2023-01-13T03:54:52.341Z,4.50
2023-01-13T03:59:58.895Z,5.60
2023-01-13T04:05:06.538Z,6.60
2023-01-13T04:10:11.360Z,8.10
2023-01-13T04:15:15.692Z,6.20
2023-01-13T04:20:18.485Z,5.60
2023-01-13T04:25:21.224Z,7.30
2023-01-13T04:30:24.020Z,7.30
2023-01-13T04:35:26.766Z,7.70
2023-01-13T04:40:29.621Z,7.90
2023-01-13T04:45:34.653Z,8.40
2023-01-13T04:50:37.472Z,6.80
2023-01-13T04:55:40.290Z,6.90
2023-01-13T05:00:43.291Z,9.80
2023-01-13T05:05:46.127Z,9.30
2023-01-13T05:10:48.961Z,8.20
2023-01-13T05:16:23.885Z,8.80
2023-01-13T05:21:45.629Z,11.60
2023-01-13T05:26:48.499Z,8.40
2023-01-13T05:31:51.272Z,11.60
2023-01-13T05:36:54.519Z,7.90
2023-01-13T05:42:16.254Z,9.30
2023-01-13T05:47:19.037Z,9.90
2023-01-13T05:52:25.066Z,11.00
2023-01-13T05:57:28.427Z,11.50
2023-01-13T06:02:31.269Z,7.40
2023-01-13T06:07:34.234Z,7.50
2023-01-13T06:12:37.246Z,9.80
2023-01-13T06:17:44.791Z,9.80
2023-01-13T06:22:51.031Z,9.30
2023-01-13T06:27:55.457Z,8.00
2023-01-13T06:33:01.867Z,8.70
2023-01-13T06:38:10.761Z,10.10
2023-01-13T06:43:17.202Z,7.60
2023-01-13T06:48:23.550Z,11.10
2023-01-13T06:53:26.571Z,6.80
2023-01-13T06:58:29.420Z,7.90
2023-01-13T07:03:40.240Z,8.60
2023-01-13T07:08:43.567Z,8.60
2023-01-13T07:14:04.741Z,9.60
2023-01-13T07:19:09.376Z,8.40
2023-01-13T07:24:16.936Z,8.30
2023-01-13T07:29:19.807Z,8.40
2023-01-13T07:34:22.731Z,7.40
2023-01-13T07:39:25.985Z,9.70
2023-01-13T07:44:34.374Z,9.50
2023-01-13T07:49:44.934Z,10.20
2023-01-13T08:00:21.759Z,9.50
2023-01-13T08:10:27.291Z,10.30
2023-01-13T08:20:35.627Z,9.40
2023-01-13T08:25:39.023Z,8.60
2023-01-13T08:35:53.132Z,8.70
2023-01-13T08:40:56.533Z,9.50
2023-01-13T08:46:01.216Z,11.30
2023-01-13T08:51:09.309Z,11.90
2023-01-13T08:56:14.780Z,10.20
2023-01-13T09:01:22.552Z,9.20
2023-01-13T09:06:37.255Z,11.70
2023-01-13T09:12:08.205Z,12.40
2023-01-13T09:17:11.283Z,9.70
2023-01-13T09:27:18.068Z,11.90
2023-01-13T09:32:21.018Z,9.80
2023-01-13T09:37:26.428Z,12.80
2023-01-13T09:43:15.833Z,12.10
2023-01-13T09:49:09.560Z,13.80
2023-01-13T09:54:32.603Z,13.90
2023-01-13T09:59:36.993Z,12.20
2023-01-13T10:04:39.833Z,10.90
2023-01-13T10:09:52.334Z,9.90
2023-01-13T10:15:02.668Z,10.10
2023-01-13T10:20:33.061Z,9.70
2023-01-13T10:26:04.486Z,7.50
2023-01-13T10:31:19.030Z,8.50
2023-01-13T10:36:23.540Z,10.10
2023-01-13T10:41:29.251Z,8.40
2023-01-13T10:46:54.551Z,9.80
2023-01-13T10:51:58.183Z,9.80
2023-01-13T10:57:26.980Z,8.40
2023-01-13T11:02:37.584Z,8.70
2023-01-13T11:07:50.466Z,9.30
2023-01-13T11:13:13.757Z,9.80
2023-01-13T11:19:03.059Z,9.80
2023-01-13T11:24:20.236Z,7.00
2023-01-13T11:29:38.808Z,9.00
2023-01-13T11:34:45.351Z,10.40
2023-01-13T11:40:12.677Z,10.10
2023-01-13T11:46:00.837Z,7.30
2023-01-13T11:51:10.348Z,9.30
2023-01-13T11:56:42.420Z,10.10
2023-01-13T12:01:48.406Z,9.30
2023-01-13T12:07:12.952Z,11.30
2023-01-13T12:12:54.803Z,9.70
2023-01-13T12:18:16.667Z,10.00
2023-01-13T12:23:32.451Z,9.60
2023-01-13T12:28:41.759Z,10.10
2023-01-13T12:33:50.327Z,12.60
2023-01-13T12:38:58.854Z,9.90
2023-01-13T12:44:17.597Z,13.90
2023-01-13T12:49:26.586Z,11.10
2023-01-13T12:54:41.252Z,10.80
2023-01-13T12:59:49.896Z,10.50
2023-01-13T13:05:20.022Z,12.30
2023-01-13T13:10:36.129Z,11.40
2023-01-13T13:15:39.026Z,11.40
2023-01-13T13:21:05.006Z,11.60
2023-01-13T13:26:24.935Z,11.20
2023-01-13T13:31:45.464Z,11.00
2023-01-13T13:37:11.049Z,12.40
2023-01-13T13:42:55.930Z,10.40
2023-01-13T13:48:24.040Z,11.50
2023-01-13T13:53:30.063Z,12.50
2023-01-13T13:58:37.081Z,10.90
2023-01-13T14:03:40.372Z,11.30
2023-01-13T14:08:50.212Z,12.50
2023-01-13T14:14:07.346Z,12.10
2023-01-13T14:19:35.517Z,12.20
2023-01-13T14:24:47.598Z,11.80
2023-01-13T14:29:55.245Z,12.40
2023-01-13T14:34:59.452Z,12.30
2023-01-13T14:40:02.667Z,11.10
2023-01-13T14:50:31.671Z,14.50
2023-01-13T14:55:41.417Z,9.70
2023-01-13T15:00:44.475Z,13.90
2023-01-13T15:05:51.293Z,13.40
2023-01-13T15:11:00.265Z,17.30
2023-01-13T15:16:07.088Z,22.60
2023-01-13T15:21:10.637Z,25.00
2023-01-13T15:26:25.925Z,20.00
2023-01-13T15:31:29.136Z,17.30
2023-01-13T15:36:34.254Z,15.90
2023-01-13T15:41:55.882Z,12.10
2023-01-13T15:47:01.500Z,17.20
2023-01-13T15:52:14.937Z,13.00
2023-01-13T15:57:33.070Z,14.00
2023-01-13T16:02:35.964Z,12.70
2023-01-13T16:07:39.984Z,11.20
2023-01-13T16:12:42.759Z,11.00
2023-01-13T16:17:46.591Z,11.70
2023-01-13T16:22:49.486Z,14.70
2023-01-13T16:27:53.011Z,15.60
2023-01-13T16:32:56.178Z,12.20
2023-01-13T16:43:04.748Z,12.90
2023-01-13T16:48:19.677Z,11.70
2023-01-13T16:53:22.450Z,10.80
2023-01-13T16:58:25.337Z,12.00
2023-01-13T17:03:29.924Z,11.30
2023-01-13T17:08:32.761Z,11.20
2023-01-13T17:13:35.537Z,10.20
2023-01-13T17:18:38.249Z,10.70
2023-01-13T17:23:41.268Z,9.90
2023-01-13T17:28:46.287Z,8.30
2023-01-13T17:33:49.048Z,8.10
2023-01-13T17:38:52.426Z,9.90
2023-01-13T17:43:55.303Z,6.90
2023-01-13T17:48:58.148Z,8.80
2023-01-13T17:54:00.908Z,7.90
2023-01-13T17:59:04.278Z,7.10
2023-01-13T18:04:09.547Z,6.50
2023-01-13T18:09:12.784Z,7.00
2023-01-13T18:14:16.443Z,5.90
2023-01-13T18:19:38.518Z,6.40
2023-01-13T18:25:00.280Z,8.30
2023-01-13T18:30:04.766Z,7.20
2023-01-13T18:35:10.443Z,9.00
2023-01-13T18:40:14.102Z,9.80
2023-01-13T18:45:18.612Z,10.50
2023-01-13T18:50:22.522Z,12.00
2023-01-13T18:55:27.213Z,12.40
2023-01-13T19:00:36.450Z,12.70
2023-01-13T19:05:39.246Z,11.60
2023-01-13T19:10:42.096Z,11.00
2023-01-13T19:15:44.816Z,12.90
2023-01-13T19:20:47.513Z,12.90
2023-01-13T19:25:50.251Z,9.50
2023-01-13T19:30:53.331Z,10.90
2023-01-13T19:41:07.343Z,9.30
2023-01-13T19:46:10.759Z,7.20
2023-01-13T19:51:14.702Z,9.90
2023-01-13T19:56:17.435Z,9.30
2023-01-13T20:01:21.122Z,8.90
2023-01-13T20:06:23.989Z,9.30
2023-01-13T20:11:31.174Z,9.10
2023-01-13T20:16:33.978Z,9.10
2023-01-13T20:21:37.849Z,7.20
2023-01-13T20:26:40.685Z,7.90
2023-01-13T20:31:43.553Z,6.30
2023-01-13T20:36:49.320Z,7.70
2023-01-13T20:42:11.353Z,7.60
2023-01-13T20:47:14.549Z,9.80
2023-01-13T20:52:17.461Z,11.90
2023-01-13T20:57:20.212Z,10.30
2023-01-13T21:02:24.426Z,7.70
2023-01-13T21:07:28.337Z,10.10
2023-01-13T21:12:49.841Z,8.70
2023-01-13T21:18:11.173Z,10.30
2023-01-13T21:23:13.885Z,8.90
2023-01-13T21:28:18.319Z,8.30
2023-01-13T21:33:22.047Z,9.50
2023-01-13T21:38:27.294Z,10.70
2023-01-13T21:43:49.065Z,9.80
2023-01-13T21:48:52.101Z,8.10
2023-01-13T21:53:56.797Z,10.50
2023-01-13T21:59:00.138Z,10.20
2023-01-13T22:04:13.100Z,11.70
2023-01-13T22:09:15.920Z,9.70
2023-01-13T22:14:18.822Z,9.60
2023-01-13T22:19:21.784Z,10.80
2023-01-13T22:34:32.551Z,9.70
2023-01-13T22:39:36.067Z,8.90
2023-01-13T22:44:38.835Z,7.20
2023-01-13T22:49:43.150Z,8.20
2023-01-13T22:54:45.889Z,9.40
2023-01-13T22:59:48.615Z,9.40
2023-01-13T23:04:51.406Z,8.50
2023-01-13T23:09:54.165Z,8.70
2023-01-13T23:14:56.854Z,7.40
2023-01-13T23:19:59.536Z,8.70
2023-01-13T23:25:02.255Z,7.20
2023-01-13T23:30:07.800Z,7.00
2023-01-13T23:35:10.527Z,5.40
2023-01-13T23:40:13.580Z,6.40
2023-01-13T23:45:16.331Z,7.10
2023-01-13T23:50:19.043Z,6.60
2023-01-13T23:55:21.788Z,5.80
